sensor_id;sensor_type;location;lat;lon;timestamp;P1;durP1;ratioP1;P2;durP2;ratioP2
68234;SDS011;55052;52.056;5.296;2023-03-01T00:01:14;12.02;;;7.00;;
68234;SDS011;55052;52.056;5.296;2023-03-01T00:03:45;11.20;;;7.22;;
68234;SDS011;55052;52.056;5.296;2023-03-01T00:06:13;11.95;;;6.88;;
68234;SDS011;55052;52.056;5.296;2023-03-01T00:08:40;11.00;;;6.90;;
68234;SDS011;55052;52.056;5.296;2023-03-01T00:11:08;10.95;;;6.38;;
68234;SDS011;55052;52.056;5.296;2023-03-01T00:13:52;9.07;;;6.45;;
68234;SDS011;55052;52.056;5.296;2023-03-01T00:16:26;11.07;;;6.70;;
68234;SDS011;55052;52.056;5.296;2023-03-01T00:18:55;11.00;;;6.78;;
68234;SDS011;55052;52.056;5.296;2023-03-01T00:21:23;11.60;;;6.97;;
68234;SDS011;55052;52.056;5.296;2023-03-01T00:23:51;12.05;;;7.47;;
68234;SDS011;55052;52.056;5.296;2023-03-01T00:26:20;15.02;;;7.75;;
68234;SDS011;55052;52.056;5.296;2023-03-01T00:28:49;12.07;;;7.15;;
68234;SDS011;55052;52.056;5.296;2023-03-01T00:31:17;12.32;;;7.53;;
68234;SDS011;55052;52.056;5.296;2023-03-01T00:36:14;10.75;;;6.47;;
68234;SDS011;55052;52.056;5.296;2023-03-01T00:38:42;12.75;;;7.40;;
68234;SDS011;55052;52.056;5.296;2023-03-01T00:41:11;11.77;;;6.88;;
68234;SDS011;55052;52.056;5.296;2023-03-01T00:43:40;12.95;;;6.50;;
68234;SDS011;55052;52.056;5.296;2023-03-01T00:46:11;11.02;;;6.90;;
68234;SDS011;55052;52.056;5.296;2023-03-01T00:48:40;11.95;;;7.35;;
68234;SDS011;55052;52.056;5.296;2023-03-01T00:51:11;9.70;;;6.53;;
68234;SDS011;55052;52.056;5.296;2023-03-01T00:53:43;12.32;;;7.25;;
68234;SDS011;55052;52.056;5.296;2023-03-01T00:56:11;12.70;;;6.57;;
68234;SDS011;55052;52.056;5.296;2023-03-01T00:58:39;9.25;;;6.57;;
68234;SDS011;55052;52.056;5.296;2023-03-01T01:01:10;9.95;;;6.70;;
68234;SDS011;55052;52.056;5.296;2023-03-01T01:03:46;9.18;;;6.75;;
68234;SDS011;55052;52.056;5.296;2023-03-01T01:06:22;9.88;;;6.75;;
68234;SDS011;55052;52.056;5.296;2023-03-01T01:08:54;12.05;;;6.80;;
68234;SDS011;55052;52.056;5.296;2023-03-01T01:11:22;14.90;;;7.45;;
68234;SDS011;55052;52.056;5.296;2023-03-01T01:13:50;11.30;;;6.93;;
68234;SDS011;55052;52.056;5.296;2023-03-01T01:16:19;12.82;;;6.75;;
68234;SDS011;55052;52.056;5.296;2023-03-01T01:18:47;13.75;;;7.78;;
68234;SDS011;55052;52.056;5.296;2023-03-01T01:21:15;11.77;;;7.03;;
68234;SDS011;55052;52.056;5.296;2023-03-01T01:23:43;11.40;;;6.70;;
68234;SDS011;55052;52.056;5.296;2023-03-01T01:26:12;14.10;;;7.57;;
68234;SDS011;55052;52.056;5.296;2023-03-01T01:28:41;12.80;;;7.70;;
68234;SDS011;55052;52.056;5.296;2023-03-01T01:31:08;10.10;;;6.97;;
68234;SDS011;55052;52.056;5.296;2023-03-01T01:33:35;10.95;;;6.60;;
68234;SDS011;55052;52.056;5.296;2023-03-01T01:36:04;13.57;;;7.32;;
68234;SDS011;55052;52.056;5.296;2023-03-01T01:38:31;10.32;;;6.70;;
68234;SDS011;55052;52.056;5.296;2023-03-01T01:40:58;12.18;;;7.68;;
68234;SDS011;55052;52.056;5.296;2023-03-01T01:43:26;11.98;;;7.20;;
68234;SDS011;55052;52.056;5.296;2023-03-01T01:45:59;10.90;;;6.80;;
68234;SDS011;55052;52.056;5.296;2023-03-01T01:48:39;11.88;;;7.60;;
68234;SDS011;55052;52.056;5.296;2023-03-01T01:51:13;11.82;;;7.75;;
68234;SDS011;55052;52.056;5.296;2023-03-01T01:53:45;13.23;;;8.20;;
68234;SDS011;55052;52.056;5.296;2023-03-01T01:56:16;12.35;;;7.35;;
68234;SDS011;55052;52.056;5.296;2023-03-01T01:58:45;12.07;;;7.43;;
68234;SDS011;55052;52.056;5.296;2023-03-01T02:01:13;14.30;;;8.10;;
68234;SDS011;55052;52.056;5.296;2023-03-01T02:03:40;9.93;;;6.60;;
68234;SDS011;55052;52.056;5.296;2023-03-01T02:06:31;12.50;;;8.00;;
68234;SDS011;55052;52.056;5.296;2023-03-01T02:09:04;12.63;;;7.65;;
68234;SDS011;55052;52.056;5.296;2023-03-01T02:11:34;11.00;;;7.35;;
68234;SDS011;55052;52.056;5.296;2023-03-01T02:14:03;14.38;;;8.02;;
68234;SDS011;55052;52.056;5.296;2023-03-01T02:16:31;10.23;;;7.28;;
68234;SDS011;55052;52.056;5.296;2023-03-01T02:18:59;11.05;;;7.50;;
68234;SDS011;55052;52.056;5.296;2023-03-01T02:24:05;11.80;;;7.85;;
68234;SDS011;55052;52.056;5.296;2023-03-01T02:26:54;15.27;;;8.10;;
68234;SDS011;55052;52.056;5.296;2023-03-01T02:29:22;12.32;;;8.18;;
68234;SDS011;55052;52.056;5.296;2023-03-01T02:31:50;12.88;;;7.72;;
68234;SDS011;55052;52.056;5.296;2023-03-01T02:34:23;10.35;;;7.05;;
68234;SDS011;55052;52.056;5.296;2023-03-01T02:36:56;12.73;;;7.57;;
68234;SDS011;55052;52.056;5.296;2023-03-01T02:39:34;11.77;;;8.05;;
68234;SDS011;55052;52.056;5.296;2023-03-01T02:42:13;12.00;;;7.38;;
68234;SDS011;55052;52.056;5.296;2023-03-01T02:44:42;11.93;;;7.75;;
68234;SDS011;55052;52.056;5.296;2023-03-01T02:47:10;12.90;;;8.07;;
68234;SDS011;55052;52.056;5.296;2023-03-01T02:49:37;11.57;;;7.55;;
68234;SDS011;55052;52.056;5.296;2023-03-01T02:57:34;12.32;;;8.05;;
68234;SDS011;55052;52.056;5.296;2023-03-01T03:00:06;11.60;;;7.90;;
68234;SDS011;55052;52.056;5.296;2023-03-01T03:02:35;11.30;;;7.28;;
68234;SDS011;55052;52.056;5.296;2023-03-01T03:07:38;12.55;;;8.13;;
68234;SDS011;55052;52.056;5.296;2023-03-01T03:10:07;11.45;;;8.00;;
68234;SDS011;55052;52.056;5.296;2023-03-01T03:12:37;11.75;;;8.45;;
68234;SDS011;55052;52.056;5.296;2023-03-01T03:15:05;13.20;;;8.40;;
68234;SDS011;55052;52.056;5.296;2023-03-01T03:17:35;10.77;;;7.18;;
68234;SDS011;55052;52.056;5.296;2023-03-01T03:20:07;10.80;;;7.85;;
68234;SDS011;55052;52.056;5.296;2023-03-01T03:22:38;12.48;;;8.27;;
68234;SDS011;55052;52.056;5.296;2023-03-01T03:25:06;20.00;;;11.00;;
68234;SDS011;55052;52.056;5.296;2023-03-01T03:27:38;18.73;;;9.85;;
68234;SDS011;55052;52.056;5.296;2023-03-01T03:30:11;13.95;;;8.68;;
68234;SDS011;55052;52.056;5.296;2023-03-01T03:32:41;12.90;;;8.13;;
68234;SDS011;55052;52.056;5.296;2023-03-01T03:35:18;10.40;;;7.28;;
68234;SDS011;55052;52.056;5.296;2023-03-01T03:37:46;13.60;;;8.00;;
68234;SDS011;55052;52.056;5.296;2023-03-01T03:40:33;10.95;;;7.38;;
68234;SDS011;55052;52.056;5.296;2023-03-01T03:43:05;15.80;;;7.38;;
68234;SDS011;55052;52.056;5.296;2023-03-01T03:45:36;12.50;;;7.68;;
68234;SDS011;55052;52.056;5.296;2023-03-01T03:48:04;12.55;;;8.00;;
68234;SDS011;55052;52.056;5.296;2023-03-01T03:50:33;10.80;;;7.30;;
68234;SDS011;55052;52.056;5.296;2023-03-01T03:53:01;10.75;;;7.30;;
68234;SDS011;55052;52.056;5.296;2023-03-01T03:55:30;12.23;;;7.50;;
68234;SDS011;55052;52.056;5.296;2023-03-01T03:58:01;11.02;;;7.95;;
68234;SDS011;55052;52.056;5.296;2023-03-01T04:00:37;12.05;;;7.88;;
68234;SDS011;55052;52.056;5.296;2023-03-01T04:03:06;12.52;;;8.25;;
68234;SDS011;55052;52.056;5.296;2023-03-01T04:05:34;13.20;;;8.02;;
68234;SDS011;55052;52.056;5.296;2023-03-01T04:08:01;12.30;;;8.25;;
68234;SDS011;55052;52.056;5.296;2023-03-01T04:10:29;12.90;;;7.65;;
68234;SDS011;55052;52.056;5.296;2023-03-01T04:12:57;12.98;;;7.80;;
68234;SDS011;55052;52.056;5.296;2023-03-01T04:15:25;12.43;;;8.38;;
68234;SDS011;55052;52.056;5.296;2023-03-01T04:17:53;12.95;;;8.10;;
68234;SDS011;55052;52.056;5.296;2023-03-01T04:20:22;12.43;;;8.18;;
68234;SDS011;55052;52.056;5.296;2023-03-01T04:22:51;14.55;;;8.02;;
68234;SDS011;55052;52.056;5.296;2023-03-01T04:25:23;12.98;;;8.20;;
68234;SDS011;55052;52.056;5.296;2023-03-01T04:27:50;12.75;;;7.80;;
68234;SDS011;55052;52.056;5.296;2023-03-01T04:30:17;11.68;;;8.40;;
68234;SDS011;55052;52.056;5.296;2023-03-01T04:32:44;12.80;;;8.43;;
68234;SDS011;55052;52.056;5.296;2023-03-01T04:35:11;11.07;;;7.68;;
68234;SDS011;55052;52.056;5.296;2023-03-01T04:37:38;11.00;;;8.38;;
68234;SDS011;55052;52.056;5.296;2023-03-01T04:40:04;12.80;;;7.88;;
68234;SDS011;55052;52.056;5.296;2023-03-01T04:42:42;12.20;;;7.78;;
68234;SDS011;55052;52.056;5.296;2023-03-01T04:45:09;12.85;;;8.10;;
68234;SDS011;55052;52.056;5.296;2023-03-01T04:47:39;12.25;;;7.72;;
68234;SDS011;55052;52.056;5.296;2023-03-01T04:50:07;13.80;;;8.68;;
68234;SDS011;55052;52.056;5.296;2023-03-01T04:52:35;13.38;;;8.35;;
68234;SDS011;55052;52.056;5.296;2023-03-01T04:55:02;13.43;;;7.90;;
68234;SDS011;55052;52.056;5.296;2023-03-01T04:57:29;12.75;;;8.40;;
68234;SDS011;55052;52.056;5.296;2023-03-01T04:59:57;13.02;;;9.00;;
68234;SDS011;55052;52.056;5.296;2023-03-01T05:02:24;13.65;;;8.30;;
68234;SDS011;55052;52.056;5.296;2023-03-01T05:04:50;13.80;;;8.10;;
68234;SDS011;55052;52.056;5.296;2023-03-01T05:07:18;13.05;;;8.45;;
68234;SDS011;55052;52.056;5.296;2023-03-01T05:09:47;13.40;;;9.07;;
68234;SDS011;55052;52.056;5.296;2023-03-01T05:12:14;14.93;;;8.75;;
68234;SDS011;55052;52.056;5.296;2023-03-01T05:14:41;13.18;;;8.95;;
68234;SDS011;55052;52.056;5.296;2023-03-01T05:17:08;14.52;;;8.90;;
68234;SDS011;55052;52.056;5.296;2023-03-01T05:19:35;13.60;;;9.20;;
68234;SDS011;55052;52.056;5.296;2023-03-01T05:22:01;12.45;;;8.07;;
68234;SDS011;55052;52.056;5.296;2023-03-01T05:24:30;13.65;;;8.73;;
68234;SDS011;55052;52.056;5.296;2023-03-01T05:29:28;13.13;;;9.25;;
68234;SDS011;55052;52.056;5.296;2023-03-01T05:31:57;13.20;;;8.95;;
68234;SDS011;55052;52.056;5.296;2023-03-01T05:34:26;14.77;;;8.75;;
68234;SDS011;55052;52.056;5.296;2023-03-01T05:36:54;17.20;;;9.40;;
68234;SDS011;55052;52.056;5.296;2023-03-01T05:39:22;14.13;;;9.45;;
68234;SDS011;55052;52.056;5.296;2023-03-01T05:41:57;14.23;;;9.25;;
68234;SDS011;55052;52.056;5.296;2023-03-01T05:44:25;15.50;;;9.23;;
68234;SDS011;55052;52.056;5.296;2023-03-01T05:46:54;17.05;;;9.38;;
68234;SDS011;55052;52.056;5.296;2023-03-01T05:49:21;19.10;;;9.25;;
68234;SDS011;55052;52.056;5.296;2023-03-01T05:51:52;14.52;;;8.75;;
68234;SDS011;55052;52.056;5.296;2023-03-01T05:54:20;13.20;;;9.07;;
68234;SDS011;55052;52.056;5.296;2023-03-01T05:56:48;14.15;;;8.93;;
68234;SDS011;55052;52.056;5.296;2023-03-01T05:59:14;13.50;;;9.10;;
68234;SDS011;55052;52.056;5.296;2023-03-01T06:01:42;13.93;;;8.52;;
68234;SDS011;55052;52.056;5.296;2023-03-01T06:04:09;14.27;;;8.70;;
68234;SDS011;55052;52.056;5.296;2023-03-01T06:06:37;13.38;;;9.02;;
68234;SDS011;55052;52.056;5.296;2023-03-01T06:09:04;16.63;;;8.88;;
68234;SDS011;55052;52.056;5.296;2023-03-01T06:11:33;14.23;;;9.30;;
68234;SDS011;55052;52.056;5.296;2023-03-01T06:14:01;13.90;;;8.93;;
68234;SDS011;55052;52.056;5.296;2023-03-01T06:16:28;13.45;;;8.63;;
68234;SDS011;55052;52.056;5.296;2023-03-01T06:18:55;13.63;;;8.95;;
68234;SDS011;55052;52.056;5.296;2023-03-01T06:21:22;13.48;;;9.27;;
68234;SDS011;55052;52.056;5.296;2023-03-01T06:23:48;15.98;;;9.32;;
68234;SDS011;55052;52.056;5.296;2023-03-01T06:26:15;15.98;;;8.55;;
68234;SDS011;55052;52.056;5.296;2023-03-01T06:28:42;16.77;;;8.95;;
68234;SDS011;55052;52.056;5.296;2023-03-01T06:31:12;16.40;;;9.48;;
68234;SDS011;55052;52.056;5.296;2023-03-01T06:33:39;13.57;;;8.65;;
68234;SDS011;55052;52.056;5.296;2023-03-01T06:36:06;17.42;;;9.13;;
68234;SDS011;55052;52.056;5.296;2023-03-01T06:38:33;13.13;;;9.15;;
68234;SDS011;55052;52.056;5.296;2023-03-01T06:41:00;14.70;;;9.35;;
68234;SDS011;55052;52.056;5.296;2023-03-01T06:43:28;13.32;;;8.48;;
68234;SDS011;55052;52.056;5.296;2023-03-01T06:45:55;14.48;;;9.07;;
68234;SDS011;55052;52.056;5.296;2023-03-01T06:48:21;14.35;;;8.85;;
68234;SDS011;55052;52.056;5.296;2023-03-01T06:50:48;13.40;;;8.68;;
68234;SDS011;55052;52.056;5.296;2023-03-01T06:53:15;12.90;;;8.63;;
68234;SDS011;55052;52.056;5.296;2023-03-01T06:55:42;14.30;;;8.73;;
68234;SDS011;55052;52.056;5.296;2023-03-01T06:58:09;17.42;;;9.07;;
68234;SDS011;55052;52.056;5.296;2023-03-01T07:00:36;12.13;;;8.70;;
68234;SDS011;55052;52.056;5.296;2023-03-01T07:03:03;17.02;;;8.90;;
68234;SDS011;55052;52.056;5.296;2023-03-01T07:05:29;13.20;;;8.65;;
68234;SDS011;55052;52.056;5.296;2023-03-01T07:07:56;13.60;;;8.73;;
68234;SDS011;55052;52.056;5.296;2023-03-01T07:10:23;13.90;;;8.82;;
68234;SDS011;55052;52.056;5.296;2023-03-01T07:12:53;14.77;;;9.20;;
68234;SDS011;55052;52.056;5.296;2023-03-01T07:15:21;13.82;;;8.98;;
68234;SDS011;55052;52.056;5.296;2023-03-01T07:17:48;15.65;;;9.30;;
68234;SDS011;55052;52.056;5.296;2023-03-01T07:20:19;14.60;;;9.32;;
68234;SDS011;55052;52.056;5.296;2023-03-01T07:22:54;15.43;;;8.90;;
68234;SDS011;55052;52.056;5.296;2023-03-01T07:25:22;17.77;;;8.50;;
68234;SDS011;55052;52.056;5.296;2023-03-01T07:27:52;14.18;;;9.57;;
68234;SDS011;55052;52.056;5.296;2023-03-01T07:32:47;12.80;;;9.00;;
68234;SDS011;55052;52.056;5.296;2023-03-01T07:35:14;15.90;;;9.20;;
68234;SDS011;55052;52.056;5.296;2023-03-01T07:37:41;13.32;;;8.13;;
68234;SDS011;55052;52.056;5.296;2023-03-01T07:40:08;13.93;;;8.98;;
68234;SDS011;55052;52.056;5.296;2023-03-01T07:42:35;13.82;;;9.38;;
68234;SDS011;55052;52.056;5.296;2023-03-01T07:45:02;13.25;;;8.13;;
68234;SDS011;55052;52.056;5.296;2023-03-01T07:47:31;15.10;;;9.18;;
68234;SDS011;55052;52.056;5.296;2023-03-01T07:49:58;13.48;;;8.98;;
68234;SDS011;55052;52.056;5.296;2023-03-01T07:52:24;12.98;;;9.07;;
68234;SDS011;55052;52.056;5.296;2023-03-01T07:54:51;16.10;;;8.60;;
68234;SDS011;55052;52.056;5.296;2023-03-01T07:57:19;14.48;;;8.55;;
68234;SDS011;55052;52.056;5.296;2023-03-01T07:59:46;15.30;;;10.25;;
68234;SDS011;55052;52.056;5.296;2023-03-01T08:02:12;16.40;;;10.73;;
68234;SDS011;55052;52.056;5.296;2023-03-01T08:04:41;14.73;;;9.20;;
68234;SDS011;55052;52.056;5.296;2023-03-01T08:07:08;18.13;;;9.57;;
68234;SDS011;55052;52.056;5.296;2023-03-01T08:09:35;16.20;;;9.80;;
68234;SDS011;55052;52.056;5.296;2023-03-01T08:12:05;17.45;;;10.27;;
68234;SDS011;55052;52.056;5.296;2023-03-01T08:14:32;13.60;;;9.15;;
68234;SDS011;55052;52.056;5.296;2023-03-01T08:16:59;16.67;;;9.70;;
68234;SDS011;55052;52.056;5.296;2023-03-01T08:19:25;15.70;;;9.45;;
68234;SDS011;55052;52.056;5.296;2023-03-01T08:21:54;17.10;;;10.60;;
68234;SDS011;55052;52.056;5.296;2023-03-01T08:24:24;14.27;;;9.40;;
68234;SDS011;55052;52.056;5.296;2023-03-01T08:26:51;12.60;;;8.63;;
68234;SDS011;55052;52.056;5.296;2023-03-01T08:29:17;14.75;;;7.93;;
68234;SDS011;55052;52.056;5.296;2023-03-01T08:31:44;12.75;;;8.32;;
68234;SDS011;55052;52.056;5.296;2023-03-01T08:34:12;12.73;;;8.13;;
68234;SDS011;55052;52.056;5.296;2023-03-01T08:36:41;11.73;;;7.82;;
68234;SDS011;55052;52.056;5.296;2023-03-01T08:39:11;12.48;;;7.57;;
68234;SDS011;55052;52.056;5.296;2023-03-01T08:41:39;11.60;;;7.80;;
68234;SDS011;55052;52.056;5.296;2023-03-01T08:44:07;12.70;;;7.55;;
68234;SDS011;55052;52.056;5.296;2023-03-01T08:46:35;14.38;;;7.95;;
68234;SDS011;55052;52.056;5.296;2023-03-01T08:49:07;13.63;;;7.47;;
68234;SDS011;55052;52.056;5.296;2023-03-01T08:51:37;12.18;;;7.13;;
68234;SDS011;55052;52.056;5.296;2023-03-01T08:54:04;11.93;;;7.32;;
68234;SDS011;55052;52.056;5.296;2023-03-01T08:56:32;16.13;;;7.50;;
68234;SDS011;55052;52.056;5.296;2023-03-01T08:58:59;12.40;;;7.15;;
68234;SDS011;55052;52.056;5.296;2023-03-01T09:01:26;11.27;;;7.50;;
68234;SDS011;55052;52.056;5.296;2023-03-01T09:03:53;11.10;;;6.43;;
68234;SDS011;55052;52.056;5.296;2023-03-01T09:06:20;12.77;;;7.50;;
68234;SDS011;55052;52.056;5.296;2023-03-01T09:08:48;12.00;;;7.28;;
68234;SDS011;55052;52.056;5.296;2023-03-01T09:11:17;10.77;;;7.00;;
68234;SDS011;55052;52.056;5.296;2023-03-01T09:13:46;14.30;;;6.85;;
68234;SDS011;55052;52.056;5.296;2023-03-01T09:16:15;11.15;;;7.25;;
68234;SDS011;55052;52.056;5.296;2023-03-01T09:18:44;12.13;;;7.40;;
68234;SDS011;55052;52.056;5.296;2023-03-01T09:21:12;11.85;;;7.03;;
68234;SDS011;55052;52.056;5.296;2023-03-01T09:23:41;12.73;;;7.78;;
68234;SDS011;55052;52.056;5.296;2023-03-01T09:26:10;13.63;;;6.90;;
68234;SDS011;55052;52.056;5.296;2023-03-01T09:28:42;14.35;;;7.63;;
68234;SDS011;55052;52.056;5.296;2023-03-01T09:31:12;12.65;;;7.32;;
68234;SDS011;55052;52.056;5.296;2023-03-01T09:33:41;10.25;;;6.57;;
68234;SDS011;55052;52.056;5.296;2023-03-01T09:36:11;10.20;;;6.60;;
68234;SDS011;55052;52.056;5.296;2023-03-01T09:38:39;10.77;;;7.10;;
68234;SDS011;55052;52.056;5.296;2023-03-01T09:46:43;13.10;;;6.82;;
68234;SDS011;55052;52.056;5.296;2023-03-01T09:49:13;11.00;;;6.90;;
68234;SDS011;55052;52.056;5.296;2023-03-01T09:51:59;11.65;;;6.35;;
68234;SDS011;55052;52.056;5.296;2023-03-01T09:54:33;10.75;;;6.40;;
68234;SDS011;55052;52.056;5.296;2023-03-01T10:02:48;11.25;;;6.40;;
68234;SDS011;55052;52.056;5.296;2023-03-01T10:08:48;9.50;;;5.93;;
68234;SDS011;55052;52.056;5.296;2023-03-01T10:11:28;12.60;;;5.85;;
68234;SDS011;55052;52.056;5.296;2023-03-01T10:14:00;8.07;;;5.20;;
68234;SDS011;55052;52.056;5.296;2023-03-01T10:16:38;8.73;;;4.75;;
68234;SDS011;55052;52.056;5.296;2023-03-01T10:19:14;9.30;;;4.90;;
68234;SDS011;55052;52.056;5.296;2023-03-01T10:21:49;7.68;;;4.90;;
68234;SDS011;55052;52.056;5.296;2023-03-01T10:24:18;8.57;;;4.80;;
68234;SDS011;55052;52.056;5.296;2023-03-01T10:26:55;7.38;;;4.38;;
68234;SDS011;55052;52.056;5.296;2023-03-01T10:29:35;8.25;;;4.78;;
68234;SDS011;55052;52.056;5.296;2023-03-01T10:32:10;9.27;;;4.50;;
68234;SDS011;55052;52.056;5.296;2023-03-01T10:34:37;7.65;;;4.53;;
68234;SDS011;55052;52.056;5.296;2023-03-01T10:37:08;8.95;;;5.38;;
68234;SDS011;55052;52.056;5.296;2023-03-01T10:39:53;8.52;;;4.60;;
68234;SDS011;55052;52.056;5.296;2023-03-01T10:42:39;8.75;;;5.07;;
68234;SDS011;55052;52.056;5.296;2023-03-01T10:45:16;7.50;;;4.63;;
68234;SDS011;55052;52.056;5.296;2023-03-01T10:48:08;6.97;;;4.10;;
68234;SDS011;55052;52.056;5.296;2023-03-01T10:50:38;7.72;;;4.80;;
68234;SDS011;55052;52.056;5.296;2023-03-01T10:53:16;7.07;;;4.43;;
68234;SDS011;55052;52.056;5.296;2023-03-01T10:56:09;8.65;;;4.72;;
68234;SDS011;55052;52.056;5.296;2023-03-01T10:58:40;7.47;;;4.53;;
68234;SDS011;55052;52.056;5.296;2023-03-01T11:06:32;7.70;;;4.30;;
68234;SDS011;55052;52.056;5.296;2023-03-01T11:09:13;8.68;;;4.10;;
68234;SDS011;55052;52.056;5.296;2023-03-01T11:11:41;10.18;;;4.25;;
68234;SDS011;55052;52.056;5.296;2023-03-01T11:14:15;8.98;;;3.88;;
68234;SDS011;55052;52.056;5.296;2023-03-01T11:17:05;6.88;;;3.90;;
68234;SDS011;55052;52.056;5.296;2023-03-01T11:19:40;7.53;;;4.05;;
68234;SDS011;55052;52.056;5.296;2023-03-01T11:22:17;6.07;;;3.38;;
68234;SDS011;55052;52.056;5.296;2023-03-01T11:24:49;6.85;;;3.67;;
68234;SDS011;55052;52.056;5.296;2023-03-01T11:27:35;7.47;;;3.90;;
68234;SDS011;55052;52.056;5.296;2023-03-01T11:30:18;8.30;;;3.80;;
68234;SDS011;55052;52.056;5.296;2023-03-01T11:35:18;6.60;;;3.37;;
68234;SDS011;55052;52.056;5.296;2023-03-01T11:44:25;6.00;;;3.33;;
68234;SDS011;55052;52.056;5.296;2023-03-01T11:47:07;6.57;;;3.70;;
68234;SDS011;55052;52.056;5.296;2023-03-01T11:49:44;8.18;;;3.53;;
68234;SDS011;55052;52.056;5.296;2023-03-01T12:00:52;6.60;;;3.67;;
68234;SDS011;55052;52.056;5.296;2023-03-01T12:03:40;5.75;;;3.20;;
68234;SDS011;55052;52.056;5.296;2023-03-01T12:09:16;5.70;;;3.20;;
68234;SDS011;55052;52.056;5.296;2023-03-01T12:20:41;7.50;;;4.32;;
68234;SDS011;55052;52.056;5.296;2023-03-01T12:23:37;6.00;;;3.88;;
68234;SDS011;55052;52.056;5.296;2023-03-01T12:37:09;7.97;;;3.97;;
68234;SDS011;55052;52.056;5.296;2023-03-01T12:45:57;8.68;;;4.20;;
68234;SDS011;55052;52.056;5.296;2023-03-01T12:50:51;9.20;;;3.90;;
68234;SDS011;55052;52.056;5.296;2023-03-01T12:53:22;6.45;;;4.05;;
68234;SDS011;55052;52.056;5.296;2023-03-01T12:55:55;7.15;;;3.83;;
68234;SDS011;55052;52.056;5.296;2023-03-01T12:58:27;9.10;;;4.40;;
68234;SDS011;55052;52.056;5.296;2023-03-01T13:06:58;8.43;;;3.90;;
68234;SDS011;55052;52.056;5.296;2023-03-01T13:09:50;6.55;;;3.85;;
68234;SDS011;55052;52.056;5.296;2023-03-01T13:17:58;7.40;;;4.20;;
68234;SDS011;55052;52.056;5.296;2023-03-01T13:23:23;7.85;;;4.20;;
68234;SDS011;55052;52.056;5.296;2023-03-01T13:49:22;7.75;;;3.90;;
68234;SDS011;55052;52.056;5.296;2023-03-01T13:52:00;7.30;;;4.43;;
68234;SDS011;55052;52.056;5.296;2023-03-01T13:54:29;7.25;;;3.95;;
68234;SDS011;55052;52.056;5.296;2023-03-01T13:56:59;7.75;;;4.00;;
68234;SDS011;55052;52.056;5.296;2023-03-01T13:59:27;7.63;;;4.20;;
68234;SDS011;55052;52.056;5.296;2023-03-01T14:01:57;6.35;;;3.85;;
68234;SDS011;55052;52.056;5.296;2023-03-01T14:07:10;7.88;;;4.20;;
68234;SDS011;55052;52.056;5.296;2023-03-01T14:09:48;6.68;;;3.80;;
68234;SDS011;55052;52.056;5.296;2023-03-01T14:15:39;8.25;;;5.15;;
68234;SDS011;55052;52.056;5.296;2023-03-01T14:20:52;5.93;;;3.63;;
68234;SDS011;55052;52.056;5.296;2023-03-01T14:23:21;7.78;;;4.15;;
68234;SDS011;55052;52.056;5.296;2023-03-01T14:25:53;8.02;;;4.10;;
68234;SDS011;55052;52.056;5.296;2023-03-01T14:28:26;7.47;;;4.40;;
68234;SDS011;55052;52.056;5.296;2023-03-01T14:30:55;6.68;;;3.67;;
68234;SDS011;55052;52.056;5.296;2023-03-01T14:35:54;7.47;;;4.18;;
68234;SDS011;55052;52.056;5.296;2023-03-01T14:38:23;7.47;;;4.20;;
68234;SDS011;55052;52.056;5.296;2023-03-01T14:40:57;7.40;;;3.83;;
68234;SDS011;55052;52.056;5.296;2023-03-01T14:43:27;8.73;;;3.97;;
68234;SDS011;55052;52.056;5.296;2023-03-01T14:45:56;9.18;;;3.90;;
68234;SDS011;55052;52.056;5.296;2023-03-01T14:48:23;8.57;;;4.18;;
68234;SDS011;55052;52.056;5.296;2023-03-01T14:50:51;6.15;;;3.72;;
68234;SDS011;55052;52.056;5.296;2023-03-01T14:53:25;6.50;;;3.70;;
68234;SDS011;55052;52.056;5.296;2023-03-01T14:56:00;6.18;;;3.60;;
68234;SDS011;55052;52.056;5.296;2023-03-01T14:58:28;7.07;;;3.53;;
68234;SDS011;55052;52.056;5.296;2023-03-01T15:00:59;7.45;;;4.30;;
68234;SDS011;55052;52.056;5.296;2023-03-01T15:03:36;6.78;;;3.75;;
68234;SDS011;55052;52.056;5.296;2023-03-01T15:06:06;7.25;;;3.65;;
68234;SDS011;55052;52.056;5.296;2023-03-01T15:08:35;8.15;;;3.75;;
68234;SDS011;55052;52.056;5.296;2023-03-01T15:13:51;8.80;;;3.78;;
68234;SDS011;55052;52.056;5.296;2023-03-01T15:16:19;6.53;;;3.63;;
68234;SDS011;55052;52.056;5.296;2023-03-01T15:18:55;6.88;;;3.55;;
68234;SDS011;55052;52.056;5.296;2023-03-01T15:21:34;6.82;;;4.03;;
68234;SDS011;55052;52.056;5.296;2023-03-01T15:26:53;6.63;;;4.10;;
68234;SDS011;55052;52.056;5.296;2023-03-01T15:29:28;7.75;;;3.72;;
68234;SDS011;55052;52.056;5.296;2023-03-01T15:31:58;7.18;;;4.30;;
68234;SDS011;55052;52.056;5.296;2023-03-01T15:34:34;8.07;;;4.30;;
68234;SDS011;55052;52.056;5.296;2023-03-01T15:37:04;14.82;;;4.00;;
68234;SDS011;55052;52.056;5.296;2023-03-01T15:39:43;6.70;;;4.03;;
68234;SDS011;55052;52.056;5.296;2023-03-01T15:47:46;8.65;;;3.72;;
68234;SDS011;55052;52.056;5.296;2023-03-01T15:53:11;9.77;;;4.57;;
68234;SDS011;55052;52.056;5.296;2023-03-01T15:55:40;7.30;;;4.03;;
68234;SDS011;55052;52.056;5.296;2023-03-01T15:58:21;9.30;;;4.57;;
68234;SDS011;55052;52.056;5.296;2023-03-01T16:00:50;6.82;;;4.25;;
68234;SDS011;55052;52.056;5.296;2023-03-01T16:03:27;6.60;;;3.75;;
68234;SDS011;55052;52.056;5.296;2023-03-01T16:05:54;7.68;;;4.03;;
68234;SDS011;55052;52.056;5.296;2023-03-01T16:08:21;8.70;;;4.88;;
68234;SDS011;55052;52.056;5.296;2023-03-01T16:10:48;7.32;;;3.75;;
68234;SDS011;55052;52.056;5.296;2023-03-01T16:13:17;8.88;;;4.10;;
68234;SDS011;55052;52.056;5.296;2023-03-01T16:15:44;7.65;;;4.10;;
68234;SDS011;55052;52.056;5.296;2023-03-01T16:18:11;8.02;;;4.60;;
68234;SDS011;55052;52.056;5.296;2023-03-01T16:20:38;7.63;;;4.47;;
68234;SDS011;55052;52.056;5.296;2023-03-01T16:23:06;7.43;;;4.50;;
68234;SDS011;55052;52.056;5.296;2023-03-01T16:25:35;6.70;;;4.03;;
68234;SDS011;55052;52.056;5.296;2023-03-01T16:28:02;6.53;;;3.75;;
68234;SDS011;55052;52.056;5.296;2023-03-01T16:30:35;8.18;;;4.70;;
68234;SDS011;55052;52.056;5.296;2023-03-01T16:33:03;10.52;;;4.63;;
68234;SDS011;55052;52.056;5.296;2023-03-01T16:35:53;9.18;;;4.65;;
68234;SDS011;55052;52.056;5.296;2023-03-01T16:38:20;6.85;;;4.38;;
68234;SDS011;55052;52.056;5.296;2023-03-01T16:40:48;7.68;;;4.50;;
68234;SDS011;55052;52.056;5.296;2023-03-01T16:43:16;9.93;;;5.13;;
68234;SDS011;55052;52.056;5.296;2023-03-01T16:45:43;8.70;;;4.60;;
68234;SDS011;55052;52.056;5.296;2023-03-01T16:48:11;7.93;;;4.70;;
68234;SDS011;55052;52.056;5.296;2023-03-01T16:50:38;9.00;;;4.40;;
68234;SDS011;55052;52.056;5.296;2023-03-01T16:53:05;7.50;;;4.55;;
68234;SDS011;55052;52.056;5.296;2023-03-01T16:55:33;9.88;;;5.40;;
68234;SDS011;55052;52.056;5.296;2023-03-01T16:58:00;7.70;;;4.40;;
68234;SDS011;55052;52.056;5.296;2023-03-01T17:00:27;10.13;;;5.00;;
68234;SDS011;55052;52.056;5.296;2023-03-01T17:02:54;11.27;;;5.40;;
68234;SDS011;55052;52.056;5.296;2023-03-01T17:05:21;7.43;;;4.50;;
68234;SDS011;55052;52.056;5.296;2023-03-01T17:07:50;8.27;;;4.68;;
68234;SDS011;55052;52.056;5.296;2023-03-01T17:10:17;8.15;;;5.07;;
68234;SDS011;55052;52.056;5.296;2023-03-01T17:12:44;9.90;;;5.30;;
68234;SDS011;55052;52.056;5.296;2023-03-01T17:15:13;10.07;;;5.47;;
68234;SDS011;55052;52.056;5.296;2023-03-01T17:17:40;9.55;;;5.70;;
68234;SDS011;55052;52.056;5.296;2023-03-01T17:20:07;12.20;;;7.20;;
68234;SDS011;55052;52.056;5.296;2023-03-01T17:22:35;10.10;;;6.45;;
68234;SDS011;55052;52.056;5.296;2023-03-01T17:25:02;9.48;;;5.50;;
68234;SDS011;55052;52.056;5.296;2023-03-01T17:27:29;7.90;;;4.82;;